Time;durP1;ratioP1;P1;durP2;ratioP2;P2;SDS_P1;SDS_P2;PMS_P1;PMS_P2;Temp;Humidity;BMP_temperature;BMP_pressure;BME280_temperature;BME280_humidity;BME280_pressure;Samples;Min_cycle;Max_cycle;Signal;HPM_P1;HPM_P2
2022/08/10 00:01:48;;;;;;;2.60;1.13;;;25.70;2.80;;;;;;5060761;28;20998;-77
2022/08/10 00:04:19;;;;;;;1.60;1.50;;;25.70;2.20;;;;;;5061913;28;20988;-78
2022/08/10 00:06:50;;;;;;;1.10;1.10;;;25.60;1.90;;;;;;5059404;28;20449;-78
2022/08/10 00:09:19;;;;;;;1.47;1.37;;;25.60;1.60;;;;;;5065150;28;20447;-78
2022/08/10 00:11:47;;;;;;;1.63;1.30;;;25.50;2.80;;;;;;5059654;28;20466;-76
2022/08/10 00:14:15;;;;;;;1.57;1.20;;;25.50;2.60;;;;;;5061268;28;20535;-76
2022/08/10 00:16:44;;;;;;;1.67;1.20;;;25.50;2.00;;;;;;5063064;28;20463;-76
2022/08/10 00:19:13;;;;;;;1.40;1.30;;;25.50;1.70;;;;;;5052782;28;20490;-77
2022/08/10 00:21:45;;;;;;;1.30;1.20;;;25.50;2.00;;;;;;5064780;28;20467;-76
2022/08/10 00:24:14;;;;;;;4.43;1.70;;;25.50;1.20;;;;;;5060474;28;20446;-77
2022/08/10 00:26:44;;;;;;;1.50;1.40;;;25.50;2.10;;;;;;5062176;28;20452;-77
2022/08/10 00:29:32;;;;;;;2.60;1.40;;;25.40;2.20;;;;;;5060620;28;20450;-77
2022/08/10 00:32:00;;;;;;;1.20;1.20;;;25.40;1.10;;;;;;5062991;28;20505;-76
2022/08/10 00:34:29;;;;;;;3.00;1.57;;;25.30;1.40;;;;;;5059013;28;20450;-76
2022/08/10 00:36:58;;;;;;;1.20;1.10;;;25.30;1.00;;;;;;5061104;28;20473;-76
2022/08/10 00:39:27;;;;;;;1.30;1.20;;;25.30;1.00;;;;;;5057017;28;20479;-78
2022/08/10 00:41:57;;;;;;;1.20;1.20;;;25.30;1.00;;;;;;5063833;28;21292;-77
2022/08/10 00:44:35;;;;;;;1.10;1.10;;;25.30;2.30;;;;;;5060289;28;20467;-77
2022/08/10 00:47:04;;;;;;;1.27;1.17;;;25.30;1.30;;;;;;5067753;28;20488;-77
2022/08/10 00:49:32;;;;;;;1.83;1.30;;;25.20;1.00;;;;;;5062576;28;21146;-78
2022/08/10 00:52:00;;;;;;;1.40;1.30;;;25.30;1.30;;;;;;5062497;28;20470;-77
2022/08/10 00:54:29;;;;;;;1.30;1.20;;;25.20;1.50;;;;;;5060415;28;20463;-77
2022/08/10 00:56:58;;;;;;;1.60;1.40;;;25.20;1.30;;;;;;5063311;28;20804;-76
2022/08/10 00:59:45;;;;;;;1.20;1.10;;;25.20;1.00;;;;;;5060774;28;20475;-77
2022/08/10 01:02:29;;;;;;;1.30;1.20;;;25.20;1.00;;;;;;5061329;28;20474;-77
2022/08/10 01:05:00;;;;;;;1.70;1.27;;;25.20;1.00;;;;;;5063725;28;20841;-77
2022/08/10 01:07:50;;;;;;;1.53;1.43;;;25.20;1.00;;;;;;5059569;28;20456;-77
2022/08/10 01:10:29;;;;;;;1.50;1.40;;;25.10;1.00;;;;;;5063601;28;20439;-78
2022/08/10 01:13:06;;;;;;;1.50;1.30;;;25.10;1.00;;;;;;5063937;28;20508;-77
2022/08/10 01:15:42;;;;;;;1.30;1.10;;;25.00;1.00;;;;;;5064075;28;20547;-76
2022/08/10 01:18:17;;;;;;;1.40;1.30;;;25.00;1.00;;;;;;5064292;28;20452;-77
2022/08/10 01:21:04;;;;;;;1.80;1.70;;;25.00;1.00;;;;;;5061319;28;20477;-77
2022/08/10 01:24:05;;;;;;;1.33;1.23;;;25.00;1.00;;;;;;5059727;28;20447;-77
2022/08/10 01:26:45;;;;;;;2.10;2.00;;;25.00;1.00;;;;;;5056705;28;20515;-78
2022/08/10 01:29:48;;;;;;;1.40;1.30;;;24.90;1.00;;;;;;5064013;28;20451;-77
2022/08/10 01:32:24;;;;;;;1.40;1.30;;;24.90;1.00;;;;;;5062401;28;20473;-77
2022/08/10 01:34:56;;;;;;;2.00;1.20;;;24.90;1.00;;;;;;5063075;28;20456;-78
2022/08/10 01:37:30;;;;;;;1.40;1.30;;;24.90;1.00;;;;;;5062517;28;20442;-79
2022/08/10 01:40:02;;;;;;;1.50;1.40;;;24.90;1.00;;;;;;5063551;28;20478;-78
2022/08/10 01:42:33;;;;;;;1.40;1.30;;;24.80;1.00;;;;;;5062559;28;20481;-78
2022/08/10 01:45:07;;;;;;;1.30;1.20;;;24.80;1.00;;;;;;5061343;28;20544;-78
2022/08/10 01:50:29;;;;;;;1.37;1.20;;;24.80;1.60;;;;;;5062112;28;20446;-77
2022/08/10 01:53:03;;;;;;;1.47;1.37;;;24.80;1.00;;;;;;5060872;28;20465;-77
2022/08/10 01:55:33;;;;;;;1.53;1.43;;;24.80;1.00;;;;;;5062977;28;20447;-78
2022/08/10 01:58:04;;;;;;;1.30;1.20;;;24.70;1.00;;;;;;5062361;28;20462;-77
2022/08/10 02:00:36;;;;;;;1.70;1.50;;;24.70;1.00;;;;;;5061247;28;20536;-77
2022/08/10 02:03:07;;;;;;;1.63;1.53;;;24.70;1.00;;;;;;5061648;28;20512;-78
2022/08/10 02:05:38;;;;;;;1.57;1.47;;;24.70;1.00;;;;;;5060787;28;20548;-78
2022/08/10 02:08:11;;;;;;;1.43;1.10;;;24.70;1.00;;;;;;5062463;28;20563;-78
2022/08/10 02:10:42;;;;;;;1.30;1.20;;;24.70;1.00;;;;;;5062556;28;20527;-77
2022/08/10 02:13:12;;;;;;;1.90;1.20;;;24.70;1.00;;;;;;5058751;28;20564;-77
2022/08/10 02:15:44;;;;;;;2.40;1.30;;;24.60;1.00;;;;;;5059737;28;20451;-77
2022/08/10 02:18:31;;;;;;;1.50;1.40;;;24.60;1.00;;;;;;5055195;28;20459;-79
2022/08/10 02:21:03;;;;;;;1.60;1.50;;;24.60;1.00;;;;;;5063274;28;20486;-79
2022/08/10 02:23:33;;;;;;;1.53;1.30;;;24.60;1.00;;;;;;5059577;28;20516;-77
2022/08/10 02:26:04;;;;;;;1.40;1.30;;;24.50;1.00;;;;;;5065447;28;20450;-78
2022/08/10 02:28:35;;;;;;;1.30;1.20;;;24.50;1.00;;;;;;5058588;28;20440;-79
2022/08/10 02:31:08;;;;;;;1.50;1.40;;;24.50;1.00;;;;;;5066297;28;20485;-77
2022/08/10 02:33:42;;;;;;;1.40;1.37;;;23.90;1.00;;;;;;5062558;28;20496;-77
2022/08/10 02:36:27;;;;;;;1.40;1.30;;;24.50;1.00;;;;;;5064040;28;20450;-78
2022/08/10 02:38:59;;;;;;;1.10;1.10;;;24.40;1.00;;;;;;5059523;28;20948;-77
2022/08/10 02:41:38;;;;;;;1.40;1.30;;;24.40;1.00;;;;;;5064132;28;20844;-77
2022/08/10 02:44:30;;;;;;;1.63;1.53;;;24.40;1.00;;;;;;5063547;28;20490;-77
2022/08/10 02:47:25;;;;;;;1.70;1.20;;;24.40;1.00;;;;;;5080118;28;20487;-76
2022/08/10 02:50:02;;;;;;;1.53;1.43;;;24.40;10.00;;;;;;5064455;28;20455;-77
2022/08/10 02:52:36;;;;;;;1.80;1.40;;;24.40;1.00;;;;;;5062906;28;20477;-77
2022/08/10 02:55:13;;;;;;;1.63;1.40;;;24.40;1.00;;;;;;5058326;28;20455;-77
2022/08/10 02:57:51;;;;;;;2.77;1.50;;;24.30;1.00;;;;;;5062537;28;20493;-79
2022/08/10 03:00:44;;;;;;;1.97;1.30;;;24.30;1.00;;;;;;5063465;28;20510;-76
2022/08/10 03:03:19;;;;;;;1.30;1.30;;;24.30;1.00;;;;;;5098275;28;20454;-77
2022/08/10 03:05:50;;;;;;;1.50;1.40;;;24.20;1.00;;;;;;5063501;28;20458;-77
2022/08/10 03:08:21;;;;;;;1.60;1.50;;;24.20;1.00;;;;;;5066105;28;20820;-76
2022/08/10 03:10:51;;;;;;;1.50;1.40;;;24.10;1.00;;;;;;5064940;28;20474;-76
2022/08/10 03:13:21;;;;;;;1.30;1.20;;;24.10;1.00;;;;;;5065033;28;20480;-76
2022/08/10 03:15:50;;;;;;;1.53;1.43;;;24.10;1.00;;;;;;5065267;28;20480;-77
2022/08/10 03:18:23;;;;;;;2.03;1.83;;;24.10;1.00;;;;;;5063522;28;20456;-77
2022/08/10 03:20:53;;;;;;;5.20;1.20;;;24.00;1.00;;;;;;5063928;28;20878;-77
2022/08/10 03:23:24;;;;;;;1.60;1.50;;;24.10;1.00;;;;;;5065746;28;20455;-77
2022/08/10 03:25:56;;;;;;;1.40;1.30;;;24.00;1.00;;;;;;5063155;28;20901;-78
2022/08/10 03:28:27;;;;;;;2.37;1.87;;;24.00;1.00;;;;;;5064427;28;20457;-78
2022/08/10 03:30:56;;;;;;;1.93;1.37;;;24.00;1.00;;;;;;5067917;28;20474;-77
2022/08/10 03:33:28;;;;;;;1.37;1.27;;;24.00;1.00;;;;;;5066619;28;20796;-78
2022/08/10 03:35:56;;;;;;;2.03;1.43;;;24.00;1.00;;;;;;5063917;28;20450;-78
2022/08/10 03:38:50;;;;;;;1.70;1.40;;;23.90;1.00;;;;;;5062888;28;20478;-78
2022/08/10 03:41:27;;;;;;;2.10;2.00;;;23.90;1.00;;;;;;5069321;28;20497;-78
2022/08/10 03:44:01;;;;;;;1.93;1.37;;;23.80;1.00;;;;;;5068381;28;21251;-76
2022/08/10 03:46:30;;;;;;;1.50;1.40;;;23.80;1.00;;;;;;5063491;28;20459;-77
2022/08/10 03:49:02;;;;;;;2.80;1.50;;;23.80;1.00;;;;;;5067865;28;20501;-77
2022/08/10 03:51:31;;;;;;;1.57;1.40;;;23.90;1.00;;;;;;5066132;28;21419;-78
2022/08/10 03:54:00;;;;;;;2.60;1.60;;;23.80;1.00;;;;;;5064927;28;20830;-77
2022/08/10 03:56:36;;;;;;;4.17;1.60;;;23.80;1.00;;;;;;5062672;28;20489;-76
2022/08/10 03:59:06;;;;;;;2.23;1.70;;;23.80;1.00;;;;;;5066694;28;20533;-76
2022/08/10 04:01:34;;;;;;;2.07;1.60;;;23.80;1.00;;;;;;5059389;28;21157;-77
2022/08/10 04:04:24;;;;;;;1.60;1.50;;;23.70;1.00;;;;;;5062382;28;20462;-77
2022/08/10 04:06:53;;;;;;;1.77;1.67;;;23.70;1.00;;;;;;5062228;28;20508;-77
2022/08/10 04:09:23;;;;;;;1.93;1.43;;;23.70;9.50;;;;;;5064606;28;20545;-78
2022/08/10 04:12:10;;;;;;;1.70;1.60;;;23.70;1.00;;;;;;5062567;28;20474;-76
2022/08/10 04:14:38;;;;;;;1.60;1.50;;;23.70;1.00;;;;;;5060501;28;21740;-77
2022/08/10 04:17:20;;;;;;;1.60;1.50;;;23.70;10.90;;;;;;5062041;28;20461;-77
2022/08/10 04:20:17;;;;;;;1.30;1.20;;;23.70;1.00;;;;;;5060742;28;20506;-79
2022/08/10 04:22:49;;;;;;;2.80;1.70;;;23.70;1.00;;;;;;5060970;28;20464;-77
2022/08/10 04:25:19;;;;;;;3.90;2.03;;;23.70;1.00;;;;;;5062455;28;20973;-77
2022/08/10 04:27:48;;;;;;;1.63;1.53;;;23.70;1.00;;;;;;5058334;28;20439;-76
2022/08/10 04:30:18;;;;;;;1.83;1.60;;;23.70;1.00;;;;;;5061919;28;20522;-78
2022/08/10 04:32:49;;;;;;;1.50;1.40;;;23.60;1.00;;;;;;5090501;28;20461;-77
2022/08/10 04:35:21;;;;;;;2.40;1.60;;;23.60;1.00;;;;;;5061688;28;20455;-77
2022/08/10 04:37:50;;;;;;;1.70;1.60;;;23.60;1.00;;;;;;5062004;28;20463;-77
2022/08/10 04:40:20;;;;;;;2.37;1.63;;;23.60;1.00;;;;;;5060003;28;20482;-77
2022/08/10 04:43:02;;;;;;;2.60;1.30;;;23.60;1.00;;;;;;5063305;28;20482;-77
2022/08/10 04:45:40;;;;;;;1.50;1.40;;;23.50;1.00;;;;;;5060635;28;20473;-78
2022/08/10 04:48:18;;;;;;;1.67;1.40;;;23.60;1.00;;;;;;5058919;28;20487;-77
2022/08/10 04:51:08;;;;;;;1.67;1.40;;;23.50;1.00;;;;;;5065454;28;20470;-77
2022/08/10 04:53:46;;;;;;;1.50;1.40;;;23.50;1.00;;;;;;5062280;28;20454;-77
2022/08/10 04:56:35;;;;;;;1.90;1.50;;;23.50;1.00;;;;;;5066272;28;20439;-77
2022/08/10 04:59:05;;;;;;;1.57;1.47;;;23.50;1.00;;;;;;5069527;28;20489;-77
2022/08/10 05:01:33;;;;;;;1.60;1.30;;;23.50;1.00;;;;;;5068676;28;20482;-78
2022/08/10 05:04:21;;;;;;;1.70;1.50;;;23.50;1.00;;;;;;5064640;28;20906;-78
2022/08/10 05:07:11;;;;;;;1.50;1.40;;;23.50;1.00;;;;;;5061675;28;21031;-77
2022/08/10 05:09:45;;;;;;;1.60;1.50;;;23.50;1.00;;;;;;5062439;28;20832;-76
2022/08/10 05:12:34;;;;;;;1.37;1.30;;;23.50;8.80;;;;;;5067510;28;20701;-76
2022/08/10 05:15:07;;;;;;;1.40;1.20;;;23.50;1.00;;;;;;5065849;28;20970;-76
2022/08/10 05:17:36;;;;;;;1.30;1.20;;;23.50;1.00;;;;;;5064278;28;20454;-76
2022/08/10 05:20:06;;;;;;;1.67;1.57;;;23.50;1.00;;;;;;5060135;28;20442;-77
2022/08/10 05:22:38;;;;;;;1.83;1.73;;;23.50;1.00;;;;;;5060561;28;20483;-77
2022/08/10 05:25:09;;;;;;;1.30;1.20;;;23.50;1.00;;;;;;5060398;28;20504;-76
2022/08/10 05:27:37;;;;;;;1.47;1.37;;;23.50;1.00;;;;;;5058062;28;20443;-76
2022/08/10 05:30:07;;;;;;;1.60;1.43;;;23.60;1.00;;;;;;5064778;28;20494;-77
2022/08/10 05:32:36;;;;;;;1.17;1.10;;;23.60;1.00;;;;;;5069454;28;20467;-76
2022/08/10 05:35:24;;;;;;;1.40;1.20;;;23.60;1.00;;;;;;5066235;28;20466;-76
2022/08/10 05:37:56;;;;;;;1.67;1.40;;;23.70;1.00;;;;;;5064191;28;20455;-76
2022/08/10 05:40:43;;;;;;;1.70;1.60;;;23.70;1.00;;;;;;5061463;28;20948;-76
2022/08/10 05:43:17;;;;;;;2.33;1.20;;;23.70;1.00;;;;;;5065637;28;20274;-75
2022/08/10 05:45:46;;;;;;;1.40;1.30;;;23.70;1.00;;;;;;5068395;28;20458;-76
2022/08/10 05:48:35;;;;;;;1.40;1.30;;;23.80;1.00;;;;;;5069769;28;20516;-76
2022/08/10 05:51:24;;;;;;;1.30;1.20;;;23.80;1.50;;;;;;5069203;28;20474;-77
2022/08/10 05:53:53;;;;;;;3.43;1.50;;;23.90;2.00;;;;;;5069455;28;20454;-76
2022/08/10 05:56:34;;;;;;;1.47;1.23;;;23.90;2.80;;;;;;5069594;28;20848;-76
2022/08/10 05:59:23;;;;;;;1.50;1.40;;;23.90;1.90;;;;;;5060491;28;20507;-75
2022/08/10 06:02:16;;;;;;;1.50;1.40;;;24.00;2.20;;;;;;5073011;28;20545;-77
2022/08/10 06:05:03;;;;;;;1.30;1.20;;;24.00;2.90;;;;;;5078356;28;20461;-75
2022/08/10 06:07:32;;;;;;;4.00;1.60;;;24.10;3.70;;;;;;5071403;28;20465;-75
2022/08/10 06:10:03;;;;;;;1.53;1.30;;;24.10;3.90;;;;;;5063436;28;20232;-74
2022/08/10 06:12:39;;;;;;;2.13;1.87;;;24.20;3.60;;;;;;5062033;28;20470;-73
2022/08/10 06:15:23;;;;;;;3.63;1.50;;;24.30;5.10;;;;;;5070017;28;20460;-74
2022/08/10 06:18:14;;;;;;;1.47;1.37;;;24.30;4.50;;;;;;5068982;28;20997;-73
2022/08/10 06:20:42;;;;;;;1.40;1.30;;;24.40;5.00;;;;;;5073434;28;20482;-73
2022/08/10 06:23:12;;;;;;;1.77;1.30;;;24.40;5.70;;;;;;5060487;28;20535;-74
2022/08/10 06:25:42;;;;;;;1.50;1.40;;;24.50;6.50;;;;;;5065320;28;20462;-73
2022/08/10 06:28:36;;;;;;;1.63;1.30;;;24.60;7.00;;;;;;5068518;28;20434;-73
2022/08/10 06:31:06;;;;;;;1.43;1.33;;;24.70;7.00;;;;;;5067214;28;20469;-73
2022/08/10 06:33:38;;;;;;;1.40;1.30;;;24.70;7.60;;;;;;5067993;28;20450;-73
2022/08/10 06:36:08;;;;;;;1.93;1.60;;;24.80;7.20;;;;;;5065781;28;20955;-74
2022/08/10 06:38:39;;;;;;;1.53;1.10;;;24.80;7.60;;;;;;5070583;28;20511;-73
2022/08/10 06:41:15;;;;;;;1.50;1.40;;;25.00;9.30;;;;;;5067486;28;20474;-73
2022/08/10 06:43:50;;;;;;;1.27;1.20;;;25.10;10.30;;;;;;5068750;28;20454;-74
2022/08/10 06:46:21;;;;;;;1.70;1.30;;;25.30;10.80;;;;;;5065170;28;22420;-74
2022/08/10 06:48:52;;;;;;;1.30;1.20;;;25.50;13.00;;;;;;5069101;28;20454;-74
2022/08/10 06:51:23;;;;;;;1.30;1.20;;;25.60;13.50;;;;;;5069177;28;20486;-73
2022/08/10 06:53:56;;;;;;;2.93;1.10;;;25.70;14.20;;;;;;5069590;28;20458;-74
2022/08/10 06:56:28;;;;;;;1.20;1.10;;;25.90;15.70;;;;;;5065874;28;20457;-74
2022/08/10 06:59:09;;;;;;;1.63;1.30;;;26.20;17.80;;;;;;5070956;28;20867;-74
2022/08/10 07:01:53;;;;;;;1.40;1.30;;;26.20;17.20;;;;;;5063046;28;20506;-74
2022/08/10 07:04:26;;;;;;;1.17;1.10;;;26.40;28.90;;;;;;5069294;28;20495;-74
2022/08/10 07:07:04;;;;;;;1.20;1.10;;;26.50;18.10;;;;;;5063725;28;20459;-75
2022/08/10 07:09:35;;;;;;;1.70;1.40;;;26.60;19.60;;;;;;5065278;28;20451;-74
2022/08/10 07:12:06;;;;;;;1.33;1.23;;;26.70;19.80;;;;;;5060969;28;20536;-75
2022/08/10 07:14:40;;;;;;;1.20;1.10;;;26.80;20.90;;;;;;5071856;28;20615;-75
2022/08/10 07:17:12;;;;;;;1.33;1.10;;;26.90;20.90;;;;;;5064538;28;20507;-74
2022/08/10 07:19:46;;;;;;;1.20;1.10;;;27.00;21.80;;;;;;5072758;28;21307;-75
2022/08/10 07:22:20;;;;;;;3.43;1.43;;;27.10;22.20;;;;;;5071943;28;20585;-74
2022/08/10 07:25:10;;;;;;;2.17;1.40;;;27.20;22.40;;;;;;5061133;28;21199;-74
2022/08/10 07:27:41;;;;;;;3.20;1.40;;;27.20;22.30;;;;;;5067277;28;20450;-74
2022/08/10 07:30:30;;;;;;;1.13;1.10;;;27.20;23.10;;;;;;5067946;28;20465;-74
2022/08/10 07:33:00;;;;;;;1.93;1.37;;;27.30;23.30;;;;;;5062384;28;20452;-73
2022/08/10 07:35:31;;;;;;;2.60;1.23;;;27.30;23.60;;;;;;5062942;28;20891;-74
2022/08/10 07:38:15;;;;;;;1.93;1.37;;;27.30;23.90;;;;;;5065017;28;20477;-74
2022/08/10 07:40:45;;;;;;;1.27;1.17;;;27.30;22.20;;;;;;5066133;28;20486;-74
2022/08/10 07:43:16;;;;;;;1.70;1.60;;;27.30;22.50;;;;;;5067765;28;20486;-74
2022/08/10 07:45:45;;;;;;;1.20;1.10;;;27.30;22.50;;;;;;5063175;28;20474;-74
2022/08/10 07:48:17;;;;;;;1.20;1.10;;;27.30;22.70;;;;;;5067070;28;20450;-74
2022/08/10 07:50:47;;;;;;;1.00;1.00;;;27.30;22.50;;;;;;5069366;28;20481;-74
2022/08/10 07:53:20;;;;;;;1.70;1.20;;;27.30;23.20;;;;;;5065162;28;20971;-75
2022/08/10 07:55:51;;;;;;;1.30;1.20;;;27.30;22.10;;;;;;5068686;28;20451;-74
2022/08/10 07:58:42;;;;;;;1.30;1.20;;;27.30;21.40;;;;;;5066176;28;20459;-75
2022/08/10 08:01:23;;;;;;;1.30;1.20;;;27.30;21.50;;;;;;5065206;28;20485;-74
2022/08/10 08:03:52;;;;;;;1.80;1.30;;;27.30;22.10;;;;;;5063965;28;20474;-75
2022/08/10 08:06:40;;;;;;;1.33;1.10;;;27.30;23.50;;;;;;5066571;28;20499;-74
2022/08/10 08:09:09;;;;;;;1.43;1.20;;;27.30;23.30;;;;;;5063071;28;20450;-74
2022/08/10 08:11:39;;;;;;;1.73;1.23;;;27.40;23.00;;;;;;5062161;28;20572;-74
2022/08/10 08:14:11;;;;;;;1.70;1.20;;;27.40;23.00;;;;;;5066141;28;20554;-74
2022/08/10 08:16:43;;;;;;;8.60;1.80;;;27.30;21.20;;;;;;5072577;28;20447;-74
2022/08/10 08:19:12;;;;;;;1.70;1.40;;;27.40;22.30;;;;;;5065993;28;20541;-74
2022/08/10 08:22:02;;;;;;;1.30;1.20;;;27.40;21.80;;;;;;5068628;28;20473;-74
2022/08/10 08:24:51;;;;;;;1.30;1.17;;;27.40;21.80;;;;;;5065541;28;20471;-74
2022/08/10 08:27:20;;;;;;;1.53;1.10;;;27.30;20.90;;;;;;5065542;28;20447;-74
2022/08/10 08:29:52;;;;;;;1.90;1.30;;;27.40;22.10;;;;;;5064632;28;20446;-74
2022/08/10 08:32:22;;;;;;;1.57;1.30;;;27.40;21.20;;;;;;5068724;28;21096;-74
2022/08/10 08:34:55;;;;;;;1.60;1.50;;;27.30;20.30;;;;;;5096463;27;20482;-75
2022/08/10 08:37:25;;;;;;;1.20;1.10;;;27.20;19.00;;;;;;5065887;28;20457;-77
2022/08/10 08:40:16;;;;;;;1.30;1.20;;;27.10;18.20;;;;;;5065229;28;20446;-74
2022/08/10 08:43:11;;;;;;;1.33;1.20;;;27.20;19.10;;;;;;5068436;28;20536;-75
2022/08/10 08:45:52;;;;;;;2.20;1.10;;;27.10;17.80;;;;;;5064062;28;20454;-75
2022/08/10 08:48:53;;;;;;;2.60;1.87;;;27.10;18.40;;;;;;5066078;28;20449;-73
2022/08/10 08:51:32;;;;;;;1.30;1.20;;;27.20;19.20;;;;;;5065252;28;21013;-74
2022/08/10 08:54:39;;;;;;;1.70;1.10;;;27.20;19.80;;;;;;5061934;28;20466;-75
2022/08/10 08:57:17;;;;;;;1.03;1.00;;;27.30;18.50;;;;;;5061047;28;20440;-74
2022/08/10 09:00:12;;;;;;;1.10;1.10;;;27.30;18.60;;;;;;5076707;28;20527;-76
2022/08/10 09:03:06;;;;;;;1.00;0.90;;;27.30;18.00;;;;;;5063872;28;20472;-74
2022/08/10 09:05:48;;;;;;;1.03;1.00;;;27.30;19.00;;;;;;5057270;28;20524;-75
2022/08/10 09:08:54;;;;;;;1.20;1.10;;;27.40;18.10;;;;;;5063193;28;21156;-73
2022/08/10 09:11:38;;;;;;;1.33;1.10;;;27.40;16.80;;;;;;5060577;28;20519;-74
2022/08/10 09:14:17;;;;;;;1.60;1.17;;;27.30;16.70;;;;;;5056787;28;20447;-75
2022/08/10 09:17:00;;;;;;;0.97;0.97;;;27.30;17.30;;;;;;5064068;28;20438;-75
2022/08/10 09:19:43;;;;;;;0.97;0.97;;;27.40;18.30;;;;;;5059518;28;20435;-74
2022/08/10 09:22:19;;;;;;;1.50;1.00;;;27.50;19.20;;;;;;5055077;28;20495;-74
2022/08/10 09:24:53;;;;;;;2.43;1.20;;;27.50;20.40;;;;;;5056568;28;20509;-74
2022/08/10 09:27:26;;;;;;;1.30;1.20;;;27.60;19.30;;;;;;5060144;28;20992;-74
2022/08/10 09:29:56;;;;;;;2.27;1.20;;;27.60;18.10;;;;;;5069203;28;20461;-74
2022/08/10 09:32:36;;;;;;;1.10;1.00;;;27.60;18.30;;;;;;5065347;28;20466;-74
2022/08/10 09:35:31;;;;;;;2.27;1.20;;;27.70;18.50;;;;;;5059595;28;20848;-74
2022/08/10 09:38:33;;;;;;;1.20;1.10;;;27.70;18.20;;;;;;5064922;28;20467;-75
2022/08/10 09:41:16;;;;;;;2.00;1.10;;;27.50;16.20;;;;;;5069741;28;20879;-74
2022/08/10 09:43:55;;;;;;;1.33;1.00;;;27.40;15.40;;;;;;5069866;28;20477;-74
2022/08/10 09:46:49;;;;;;;1.30;1.20;;;27.50;16.70;;;;;;5079309;28;20465;-75
2022/08/10 09:49:26;;;;;;;1.40;1.30;;;27.60;15.80;;;;;;5062868;28;20744;-75
2022/08/10 09:52:23;;;;;;;1.43;1.20;;;27.60;15.90;;;;;;5067749;28;20470;-75
2022/08/10 09:55:04;;;;;;;1.40;1.10;;;27.70;18.10;;;;;;5070770;28;20450;-74
2022/08/10 09:57:39;;;;;;;1.27;1.20;;;27.70;18.10;;;;;;5060382;28;20513;-75
2022/08/10 10:00:17;;;;;;;1.23;1.13;;;27.80;18.30;;;;;;5063450;28;20453;-74
2022/08/10 10:03:01;;;;;;;1.77;1.20;;;27.80;18.50;;;;;;5074082;28;21310;-75
2022/08/10 10:05:39;;;;;;;1.47;1.03;;;27.80;16.90;;;;;;5063634;28;20784;-75
2022/08/10 10:08:42;;;;;;;1.20;1.10;;;27.80;17.60;;;;;;5068622;28;20450;-75
2022/08/10 10:11:16;;;;;;;1.13;1.10;;;27.80;17.60;;;;;;5066489;28;21368;-74
2022/08/10 10:13:57;;;;;;;2.20;1.10;;;27.90;17.60;;;;;;5070996;28;20867;-74
2022/08/10 10:16:46;;;;;;;1.60;1.00;;;27.90;19.10;;;;;;5067534;28;20482;-74
2022/08/10 10:19:30;;;;;;;1.20;1.10;;;28.00;19.20;;;;;;5070918;28;20504;-75
2022/08/10 10:22:11;;;;;;;1.40;1.30;;;28.20;20.00;;;;;;5067862;28;20465;-73
2022/08/10 10:24:49;;;;;;;1.55;1.20;;;28.00;18.60;;;;;;5059787;28;20457;-75
2022/08/10 10:27:26;;;;;;;2.07;1.07;;;28.00;19.00;;;;;;5067853;28;20193;-75
2022/08/10 10:30:03;;;;;;;1.20;1.10;;;28.10;19.90;;;;;;5069699;28;20516;-75
2022/08/10 10:32:44;;;;;;;1.20;1.00;;;28.10;20.30;;;;;;5066316;28;20478;-75
2022/08/10 10:35:23;;;;;;;1.27;1.10;;;28.10;20.10;;;;;;5067466;28;20533;-75
2022/08/10 10:37:53;;;;;;;1.40;1.13;;;28.20;20.20;;;;;;5069527;28;20462;-75
2022/08/10 10:40:39;;;;;;;1.30;1.00;;;28.20;19.30;;;;;;5070095;28;20932;-75
2022/08/10 10:43:20;;;;;;;1.40;1.10;;;28.20;19.40;;;;;;5069655;28;20937;-81
2022/08/10 10:46:03;;;;;;;1.20;1.10;;;28.20;19.00;;;;;;5065888;28;20460;-79
2022/08/10 10:48:48;;;;;;;1.60;1.00;;;28.30;19.40;;;;;;5067972;28;20521;-80
2022/08/10 10:51:25;;;;;;;1.30;1.07;;;28.30;20.30;;;;;;5066727;28;20943;-79
2022/08/10 10:54:03;;;;;;;1.47;1.13;;;28.30;21.10;;;;;;5067326;28;20472;-79
2022/08/10 10:56:42;;;;;;;1.07;1.07;;;28.40;19.80;;;;;;5070418;28;20458;-80
2022/08/10 10:59:25;;;;;;;1.37;1.00;;;28.30;18.90;;;;;;5071397;28;20530;-80
2022/08/10 11:02:27;;;;;;;1.20;1.10;;;28.40;18.50;;;;;;5070643;28;21350;-79
2022/08/10 11:05:04;;;;;;;1.10;1.00;;;28.40;29.10;;;;;;5064668;28;20475;-79
2022/08/10 11:07:39;;;;;;;1.30;1.20;;;28.40;20.20;;;;;;5065447;28;20453;-79
2022/08/10 11:10:18;;;;;;;1.30;1.20;;;28.40;19.80;;;;;;5066124;28;20454;-80
2022/08/10 11:13:20;;;;;;;1.87;1.23;;;28.40;17.60;;;;;;5067997;28;20486;-81
2022/08/10 11:16:13;;;;;;;1.13;1.00;;;28.40;18.20;;;;;;5068727;28;20560;-79
2022/08/10 11:18:54;;;;;;;1.20;1.10;;;28.50;20.50;;;;;;5067060;28;20502;-79
2022/08/10 11:21:35;;;;;;;1.10;1.10;;;28.50;21.10;;;;;;5068266;28;20501;-79
2022/08/10 11:24:09;;;;;;;1.07;1.00;;;28.70;22.20;;;;;;5063968;28;20510;-79
2022/08/10 11:27:04;;;;;;;1.00;1.00;;;28.70;20.70;;;;;;5065192;28;20824;-80
2022/08/10 11:29:38;;;;;;;2.40;1.00;;;28.70;21.80;;;;;;5070080;28;20474;-79
2022/08/10 11:32:19;;;;;;;1.20;1.07;;;28.70;21.70;;;;;;5074623;28;20481;-79
2022/08/10 11:34:54;;;;;;;1.87;1.00;;;28.80;21.10;;;;;;5068350;28;20453;-80
2022/08/10 11:37:49;;;;;;;1.50;1.00;;;28.80;21.90;;;;;;5068172;28;20824;-80
2022/08/10 11:40:43;;;;;;;1.67;0.90;;;28.80;21.90;;;;;;5067816;28;20462;-80
2022/08/10 11:43:20;;;;;;;2.20;0.90;;;28.80;21.30;;;;;;5066150;28;20993;-80
2022/08/10 11:45:56;;;;;;;1.30;1.10;;;28.90;21.80;;;;;;5070147;28;20473;-80
2022/08/10 11:48:40;;;;;;;1.23;1.13;;;28.90;21.10;;;;;;5070113;28;20477;-80
2022/08/10 11:51:30;;;;;;;1.27;1.20;;;28.90;22.00;;;;;;5068265;28;21029;-79
2022/08/10 11:54:07;;;;;;;1.30;1.20;;;29.00;22.00;;;;;;5071010;28;20466;-80
2022/08/10 11:56:47;;;;;;;1.30;1.20;;;29.10;22.90;;;;;;5063393;28;20534;-80
2022/08/10 12:02:08;;;;;;;1.40;1.30;;;29.10;23.40;;;;;;5069663;28;20471;-80
2022/08/10 12:04:40;;;;;;;1.00;1.00;;;29.10;34.00;;;;;;5066157;28;20765;-80
2022/08/10 12:07:10;;;;;;;1.23;1.17;;;29.10;22.70;;;;;;5067497;28;20447;-80
2022/08/10 12:09:58;;;;;;;1.10;1.10;;;29.10;31.60;;;;;;5068546;28;20547;-78
2022/08/10 12:12:45;;;;;;;1.17;1.07;;;29.00;19.90;;;;;;5063588;28;20858;-79
2022/08/10 12:15:21;;;;;;;1.40;1.30;;;29.00;20.70;;;;;;5067251;28;20450;-79
2022/08/10 12:17:55;;;;;;;1.07;0.97;;;29.00;20.80;;;;;;5061305;28;20469;-79
2022/08/10 12:20:29;;;;;;;1.27;1.17;;;29.10;22.20;;;;;;5066716;28;20448;-79
2022/08/10 12:23:02;;;;;;;1.00;0.90;;;29.20;21.50;;;;;;5066132;28;20576;-80
2022/08/10 12:25:37;;;;;;;1.20;1.10;;;29.10;21.40;;;;;;5064557;28;20481;-79
2022/08/10 12:28:31;;;;;;;0.97;0.97;;;29.10;21.90;;;;;;5064668;28;20479;-80
2022/08/10 12:31:24;;;;;;;1.73;1.10;;;29.20;20.30;;;;;;5068253;28;20985;-79
2022/08/10 12:34:05;;;;;;;1.23;1.10;;;29.20;20.40;;;;;;5068118;28;20961;-80
2022/08/10 12:36:39;;;;;;;2.73;1.10;;;29.20;21.00;;;;;;5070906;28;20441;-80
2022/08/10 12:39:15;;;;;;;1.20;1.10;;;29.10;18.90;;;;;;5064389;28;20959;-80
2022/08/10 12:41:49;;;;;;;1.30;1.20;;;29.10;29.80;;;;;;5067909;28;20474;-80
2022/08/10 12:44:25;;;;;;;1.10;1.00;;;29.10;19.60;;;;;;5063060;28;20834;-80
2022/08/10 12:47:20;;;;;;;1.30;1.10;;;29.20;20.30;;;;;;5062883;28;20438;-80
2022/08/10 12:49:57;;;;;;;1.43;1.00;;;29.30;20.50;;;;;;5061939;28;20459;-80
2022/08/10 12:52:55;;;;;;;1.60;1.10;;;29.30;21.90;;;;;;5068761;28;20463;-79
2022/08/10 12:55:26;;;;;;;1.23;1.00;;;29.40;21.90;;;;;;5066300;28;20841;-79
2022/08/10 12:57:56;;;;;;;4.57;1.00;;;29.30;20.60;;;;;;5065621;28;21981;-80
2022/08/10 13:00:31;;;;;;;1.00;1.00;;;29.30;20.80;;;;;;5068029;28;20458;-79
2022/08/10 13:03:01;;;;;;;1.00;1.00;;;29.40;21.10;;;;;;5065877;28;20886;-79
2022/08/10 13:05:32;;;;;;;1.83;1.20;;;29.40;21.30;;;;;;5060097;28;20822;-80
2022/08/10 13:11:12;;;;;;;1.00;1.00;;;29.50;21.00;;;;;;5068673;28;20993;-79
2022/08/10 13:14:07;;;;;;;3.50;1.10;;;29.50;21.10;;;;;;5067394;28;20454;-80
2022/08/10 13:16:37;;;;;;;3.60;1.30;;;29.50;21.50;;;;;;5066934;28;20514;-81
2022/08/10 13:19:07;;;;;;;1.03;1.03;;;29.50;21.60;;;;;;5066450;28;20856;-79
2022/08/10 13:21:39;;;;;;;2.03;1.20;;;29.50;20.20;;;;;;5068390;28;20481;-79
2022/08/10 13:24:11;;;;;;;1.13;1.00;;;29.40;20.20;;;;;;5067427;28;20478;-80
2022/08/10 13:26:44;;;;;;;1.17;1.07;;;29.40;21.50;;;;;;5069153;28;20487;-79
2022/08/10 13:29:35;;;;;;;0.90;0.90;;;29.50;19.80;;;;;;5063660;28;20986;-82
2022/08/10 13:32:05;;;;;;;1.00;1.00;;;29.50;20.30;;;;;;5066695;28;20498;-80
2022/08/10 13:34:45;;;;;;;1.20;1.10;;;29.50;21.80;;;;;;5067866;28;20462;-79
2022/08/10 13:37:20;;;;;;;1.17;1.07;;;29.50;21.90;;;;;;5066121;28;20454;-79
2022/08/10 13:39:51;;;;;;;1.33;1.10;;;29.60;37.80;;;;;;5063933;28;20456;-79
2022/08/10 13:42:29;;;;;;;1.13;1.03;;;29.50;23.40;;;;;;5072934;28;20565;-80
2022/08/10 13:45:07;;;;;;;1.30;1.20;;;29.50;24.60;;;;;;5067412;28;20492;-79
2022/08/10 13:47:36;;;;;;;1.20;1.10;;;29.50;25.50;;;;;;5074100;28;20445;-79
2022/08/10 13:50:22;;;;;;;1.30;1.20;;;29.60;23.50;;;;;;5065198;28;20454;-79
2022/08/10 13:53:06;;;;;;;0.90;0.90;;;29.50;22.80;;;;;;5063127;28;20457;-79
2022/08/10 13:55:44;;;;;;;1.03;0.90;;;29.40;25.40;;;;;;5061540;28;20532;-79